createdAt,value
2022-11-29T00:00:16.699Z,1019.44
2022-11-29T00:00:46.599Z,1019.44
2022-11-29T00:01:19.144Z,1019.13
2022-11-29T00:01:41.800Z,1019.23
2022-11-29T00:02:04.356Z,1019.23
2022-11-29T00:02:43.809Z,1019.23
2022-11-29T00:03:05.687Z,1019.23
2022-11-29T00:03:42.976Z,1019.23
2022-11-29T00:04:14.530Z,1019.44
2022-11-29T00:04:46.583Z,1019.44
2022-11-29T00:05:18.973Z,1019.23
2022-11-29T00:05:41.802Z,1019.13
2022-11-29T00:06:04.262Z,1019.13
2022-11-29T00:06:38.516Z,1019.13
2022-11-29T00:07:10.902Z,1019.23
2022-11-29T00:07:42.688Z,1019.23
2022-11-29T00:08:14.737Z,1019.23
2022-11-29T00:08:46.475Z,1019.23
2022-11-29T00:09:12.240Z,1019.03
2022-11-29T00:09:47.890Z,1019.23
2022-11-29T00:10:23.081Z,1019.23
2022-11-29T00:10:45.566Z,1019.44
2022-11-29T00:11:09.174Z,1019.44
2022-11-29T00:11:42.804Z,1019.44
2022-11-29T00:12:14.847Z,1019.44
2022-11-29T00:12:46.668Z,1019.44
2022-11-29T00:13:19.354Z,1019.13
2022-11-29T00:13:45.478Z,1019.44
2022-11-29T00:14:04.478Z,1019.44
2022-11-29T00:14:39.257Z,1019.44
2022-11-29T00:15:10.790Z,1019.44
2022-11-29T00:15:43.454Z,1019.44
2022-11-29T00:16:14.984Z,1019.44
2022-11-29T00:16:46.844Z,1019.44
2022-11-29T00:17:22.120Z,1019.23
2022-11-29T00:17:41.392Z,1019.23
2022-11-29T00:18:04.440Z,1019.23
2022-11-29T00:18:39.627Z,1019.23
2022-11-29T00:19:14.581Z,1019.23
2022-11-29T00:19:48.463Z,1019.23
2022-11-29T00:20:14.917Z,1019.13
2022-11-29T00:20:47.108Z,1019.13
2022-11-29T00:21:18.760Z,1019.13
2022-11-29T00:21:41.494Z,1019.23
2022-11-29T00:22:06.756Z,1019.23
2022-11-29T00:22:42.938Z,1019.13
2022-11-29T00:23:11.044Z,1019.13
2022-11-29T00:23:43.055Z,1019.13
2022-11-29T00:24:14.577Z,1019.13
2022-11-29T00:24:47.102Z,1019.13
2022-11-29T00:25:18.912Z,1019.23
2022-11-29T00:25:41.345Z,1019.23
2022-11-29T00:26:04.203Z,1019.23
2022-11-29T00:26:38.484Z,1019.23
2022-11-29T00:27:10.756Z,1019.23
2022-11-29T00:27:42.743Z,1019.23
2022-11-29T00:28:15.454Z,1019.34
2022-11-29T00:28:46.920Z,1019.34
2022-11-29T00:29:18.755Z,1019.34
2022-11-29T00:29:41.434Z,1019.23
2022-11-29T00:30:03.995Z,1019.23
2022-11-29T00:30:38.804Z,1019.23
2022-11-29T00:31:14.466Z,1019.13
2022-11-29T00:31:43.150Z,1019.13
2022-11-29T00:32:14.641Z,1019.03
2022-11-29T00:32:47.752Z,1019.03
2022-11-29T00:33:20.889Z,1019.03
2022-11-29T00:33:42.171Z,1019.44
2022-11-29T00:34:05.332Z,1019.44
2022-11-29T00:34:38.559Z,1019.44
2022-11-29T00:35:10.840Z,1019.23
2022-11-29T00:35:43.046Z,1019.23
2022-11-29T00:36:14.804Z,1019.34
2022-11-29T00:36:46.931Z,1019.34
2022-11-29T00:37:18.842Z,1019.23
2022-11-29T00:37:41.655Z,1019.34
2022-11-29T00:38:04.015Z,1019.34
2022-11-29T00:38:39.624Z,1019.34
2022-11-29T00:39:10.563Z,1019.34
2022-11-29T00:39:42.709Z,1019.34
2022-11-29T00:40:15.327Z,1019.23
2022-11-29T00:40:47.251Z,1019.23
2022-11-29T00:41:18.532Z,1019.34
2022-11-29T00:41:41.498Z,1019.23
2022-11-29T00:42:05.291Z,1019.23
2022-11-29T00:42:38.859Z,1019.23
2022-11-29T00:43:10.486Z,1019.34
2022-11-29T00:43:42.937Z,1019.34
2022-11-29T00:44:20.673Z,1019.23
2022-11-29T00:44:41.880Z,1019.23
2022-11-29T00:45:15.685Z,1019.23
2022-11-29T00:45:47.425Z,1019.13
2022-11-29T00:46:22.686Z,1019.13
2022-11-29T00:46:46.455Z,1019.23
2022-11-29T00:47:08.843Z,1019.23
2022-11-29T00:47:42.581Z,1019.23
2022-11-29T00:48:14.599Z,1019.23
2022-11-29T00:48:46.640Z,1019.23
2022-11-29T00:49:18.591Z,1019.34
2022-11-29T00:49:41.370Z,1019.23
2022-11-29T00:50:03.683Z,1019.23
2022-11-29T00:50:38.555Z,1019.23
2022-11-29T00:51:10.653Z,1019.03
2022-11-29T00:51:42.467Z,1019.03
2022-11-29T00:52:14.685Z,1019.34
2022-11-29T00:52:46.379Z,1019.34
2022-11-29T00:53:15.701Z,1019.13
2022-11-29T00:53:47.313Z,1019.23
2022-11-29T00:54:22.732Z,1019.23
2022-11-29T00:54:46.089Z,1019.23
2022-11-29T00:55:07.941Z,1019.23
2022-11-29T00:55:42.646Z,1019.23
2022-11-29T00:56:14.573Z,1019.23
2022-11-29T00:56:46.725Z,1019.23
2022-11-29T00:57:18.585Z,1019.34
2022-11-29T00:57:41.263Z,1019.13
2022-11-29T00:58:03.575Z,1019.13
2022-11-29T00:58:38.620Z,1019.13
2022-11-29T00:59:10.518Z,1019.23
2022-11-29T00:59:42.509Z,1019.23
2022-11-29T01:00:14.495Z,1019.13
2022-11-29T01:00:46.536Z,1019.13
2022-11-29T01:01:15.781Z,1019.23
2022-11-29T01:01:47.753Z,1019.44
2022-11-29T01:02:23.152Z,1019.44
2022-11-29T01:02:46.315Z,1019.23
2022-11-29T01:03:08.631Z,1019.23
2022-11-29T01:03:42.449Z,1019.23
2022-11-29T01:04:14.413Z,1019.34
2022-11-29T01:04:46.867Z,1019.34
2022-11-29T01:05:18.505Z,1019.23
2022-11-29T01:05:41.199Z,1019.34
2022-11-29T01:06:03.579Z,1019.34
2022-11-29T01:06:38.719Z,1019.34
2022-11-29T01:07:10.833Z,1019.23
2022-11-29T01:07:42.623Z,1019.23
2022-11-29T01:08:15.972Z,1019.44
2022-11-29T01:08:46.438Z,1019.44
2022-11-29T01:09:17.356Z,1019.34
2022-11-29T01:09:47.565Z,1019.23
2022-11-29T01:10:22.602Z,1019.23
2022-11-29T01:10:45.461Z,1019.23
2022-11-29T01:11:07.901Z,1019.23
2022-11-29T01:11:42.581Z,1019.23
2022-11-29T01:12:14.549Z,1019.34
2022-11-29T01:12:46.462Z,1019.34
2022-11-29T01:13:18.651Z,1019.34
2022-11-29T01:13:42.570Z,1019.23
2022-11-29T01:14:04.744Z,1019.23
2022-11-29T01:14:38.629Z,1019.23
2022-11-29T01:15:10.859Z,1019.44
2022-11-29T01:15:42.491Z,1019.44
2022-11-29T01:16:14.511Z,1019.44
2022-11-29T01:16:46.648Z,1019.44
2022-11-29T01:17:18.524Z,1019.23
2022-11-29T01:17:43.825Z,1019.44
2022-11-29T01:18:06.095Z,1019.44
2022-11-29T01:18:38.534Z,1019.44
2022-11-29T01:19:11.259Z,1019.23
2022-11-29T01:19:46.426Z,1019.23
2022-11-29T01:20:14.686Z,1019.34
2022-11-29T01:20:46.545Z,1019.34
2022-11-29T01:21:18.570Z,1019.44
2022-11-29T01:21:41.430Z,1019.23
2022-11-29T01:22:03.646Z,1019.23
2022-11-29T01:22:38.785Z,1019.23
2022-11-29T01:23:10.713Z,1019.23
2022-11-29T01:23:42.559Z,1019.23
2022-11-29T01:24:14.558Z,1019.44
2022-11-29T01:24:46.541Z,1019.44
2022-11-29T01:25:15.584Z,1019.44
2022-11-29T01:25:47.297Z,1019.74
2022-11-29T01:26:22.628Z,1019.74
2022-11-29T01:26:45.372Z,1019.54
2022-11-29T01:27:07.808Z,1019.54
2022-11-29T01:27:42.428Z,1019.54
2022-11-29T01:28:14.511Z,1019.44
2022-11-29T01:28:46.523Z,1019.44
2022-11-29T01:29:18.552Z,1019.44
2022-11-29T01:29:42.328Z,1019.44
2022-11-29T01:30:04.660Z,1019.44
2022-11-29T01:30:38.753Z,1019.44
2022-11-29T01:31:10.593Z,1019.34
2022-11-29T01:31:42.724Z,1019.34
2022-11-29T01:32:14.606Z,1019.64
2022-11-29T01:32:46.544Z,1019.64
2022-11-29T01:33:18.534Z,1019.54
2022-11-29T01:33:41.327Z,1019.44
2022-11-29T01:34:03.579Z,1019.44
2022-11-29T01:34:38.717Z,1019.44
2022-11-29T01:35:10.664Z,1019.44
2022-11-29T01:35:42.588Z,1019.44
2022-11-29T01:36:14.421Z,1019.44
2022-11-29T01:36:46.418Z,1019.44
2022-11-29T01:37:15.723Z,1019.34
2022-11-29T01:37:47.310Z,1019.64
2022-11-29T01:38:22.630Z,1019.64
2022-11-29T01:38:45.259Z,1019.54
2022-11-29T01:39:07.571Z,1019.54
2022-11-29T01:39:42.422Z,1019.54
2022-11-29T01:40:15.209Z,1019.34
2022-11-29T01:40:46.528Z,1019.34
2022-11-29T01:41:18.548Z,1019.54
2022-11-29T01:41:41.860Z,1019.44
2022-11-29T01:42:03.800Z,1019.44
2022-11-29T01:42:38.496Z,1019.44
2022-11-29T01:43:10.507Z,1019.44
2022-11-29T01:43:42.840Z,1019.44
2022-11-29T01:44:14.534Z,1019.54
2022-11-29T01:44:46.733Z,1019.54
2022-11-29T01:45:18.769Z,1019.54
2022-11-29T01:45:43.043Z,1019.44
2022-11-29T01:46:05.684Z,1019.44
2022-11-29T01:46:38.867Z,1019.44
2022-11-29T01:47:10.416Z,1019.34
2022-11-29T01:47:46.004Z,1019.34
2022-11-29T01:48:14.433Z,1019.54
2022-11-29T01:48:46.686Z,1019.54
2022-11-29T01:49:18.447Z,1019.54
2022-11-29T01:49:41.492Z,1019.54
2022-11-29T01:50:03.843Z,1019.54
2022-11-29T01:50:38.535Z,1019.54
2022-11-29T01:51:10.557Z,1019.34
2022-11-29T01:51:42.584Z,1019.34
2022-11-29T01:52:14.463Z,1019.34
2022-11-29T01:52:46.555Z,1019.34
2022-11-29T01:53:18.509Z,1019.44
2022-11-29T01:53:41.766Z,1019.54
2022-11-29T01:54:04.059Z,1019.54
2022-11-29T01:54:38.511Z,1019.54
2022-11-29T01:55:10.568Z,1019.44
2022-11-29T01:55:42.535Z,1019.44
2022-11-29T01:56:14.916Z,1019.44
2022-11-29T01:56:46.439Z,1019.44
2022-11-29T01:57:18.618Z,1019.34
2022-11-29T01:57:41.409Z,1019.74
2022-11-29T01:58:03.849Z,1019.74
2022-11-29T01:58:38.761Z,1019.74
2022-11-29T01:59:10.844Z,1019.64
2022-11-29T01:59:42.532Z,1019.64
2022-11-29T02:00:14.606Z,1019.44
2022-11-29T02:00:46.601Z,1019.44
2022-11-29T02:01:18.615Z,1019.64
2022-11-29T02:01:41.380Z,1019.54
2022-11-29T02:02:03.937Z,1019.54
2022-11-29T02:02:39.040Z,1019.54
2022-11-29T02:03:10.542Z,1019.74
2022-11-29T02:03:42.603Z,1019.74
2022-11-29T02:04:14.517Z,1019.34
2022-11-29T02:04:47.126Z,1019.34
2022-11-29T02:05:19.273Z,1019.44
2022-11-29T02:05:47.615Z,1019.54
2022-11-29T02:06:22.630Z,1019.54
2022-11-29T02:06:45.868Z,1019.54
2022-11-29T02:07:08.168Z,1019.54
2022-11-29T02:07:42.668Z,1019.54
2022-11-29T02:08:19.911Z,1019.34
2022-11-29T02:08:46.498Z,1019.34
2022-11-29T02:09:18.702Z,1019.54
2022-11-29T02:09:41.638Z,1019.34
2022-11-29T02:10:04.022Z,1019.34
2022-11-29T02:10:38.490Z,1019.34
2022-11-29T02:11:10.592Z,1019.54
2022-11-29T02:11:42.395Z,1019.54
2022-11-29T02:12:15.940Z,1019.74
2022-11-29T02:12:46.488Z,1019.74
2022-11-29T02:13:18.582Z,1019.64
2022-11-29T02:13:42.329Z,1019.64
2022-11-29T02:14:04.320Z,1019.64
2022-11-29T02:14:38.923Z,1019.64
2022-11-29T02:15:10.684Z,1019.74
2022-11-29T02:15:42.753Z,1019.74
2022-11-29T02:16:14.596Z,1019.54
2022-11-29T02:16:46.480Z,1019.54
2022-11-29T02:17:18.524Z,1019.54
2022-11-29T02:17:41.077Z,1019.54
2022-11-29T02:18:07.024Z,1019.54
2022-11-29T02:18:38.809Z,1019.54
2022-11-29T02:19:10.612Z,1019.74
2022-11-29T02:19:42.602Z,1019.74
2022-11-29T02:20:15.843Z,1019.44
2022-11-29T02:20:46.876Z,1019.44
2022-11-29T02:21:18.384Z,1019.54
2022-11-29T02:21:41.274Z,1019.54
2022-11-29T02:22:03.568Z,1019.54
2022-11-29T02:22:38.545Z,1019.54
2022-11-29T02:23:10.390Z,1019.64
2022-11-29T02:23:42.352Z,1019.64
2022-11-29T02:24:14.492Z,1019.64
2022-11-29T02:24:48.041Z,1019.64
2022-11-29T02:25:18.775Z,1019.64
2022-11-29T02:25:41.265Z,1019.64
2022-11-29T02:26:03.593Z,1019.64
2022-11-29T02:26:38.482Z,1019.64
2022-11-29T02:27:10.607Z,1019.34
2022-11-29T02:27:42.492Z,1019.34
2022-11-29T02:28:14.411Z,1019.64
2022-11-29T02:28:46.414Z,1019.64
2022-11-29T02:29:15.555Z,1019.64
2022-11-29T02:29:47.311Z,1019.54
2022-11-29T02:30:22.746Z,1019.54
2022-11-29T02:30:46.276Z,1019.54
2022-11-29T02:31:08.810Z,1019.54
2022-11-29T02:31:42.475Z,1019.54
2022-11-29T02:32:14.698Z,1019.64
2022-11-29T02:32:46.619Z,1019.64
2022-11-29T02:33:18.539Z,1019.64
2022-11-29T02:33:41.157Z,1019.44
2022-11-29T02:34:03.616Z,1019.44
2022-11-29T02:34:38.535Z,1019.44
2022-11-29T02:35:10.383Z,1019.64
2022-11-29T02:35:42.379Z,1019.64
2022-11-29T02:36:14.410Z,1019.44
2022-11-29T02:36:46.685Z,1019.44
2022-11-29T02:37:15.607Z,1019.54
2022-11-29T02:37:47.308Z,1019.64
2022-11-29T02:38:22.675Z,1019.64
2022-11-29T02:38:45.755Z,1019.64
2022-11-29T02:39:08.081Z,1019.64
2022-11-29T02:39:42.546Z,1019.64
2022-11-29T02:40:14.456Z,1019.54
2022-11-29T02:40:46.511Z,1019.54
2022-11-29T02:41:18.449Z,1019.54
2022-11-29T02:41:41.689Z,1019.64
2022-11-29T02:42:03.807Z,1019.64
2022-11-29T02:42:38.480Z,1019.64
2022-11-29T02:43:10.748Z,1019.81
2022-11-29T02:43:42.539Z,1019.81
2022-11-29T02:44:14.544Z,1019.81
2022-11-29T02:44:46.720Z,1019.81
2022-11-29T02:45:15.858Z,1019.74
2022-11-29T02:45:47.400Z,1019.74
2022-11-29T02:46:22.883Z,1019.74
2022-11-29T02:46:46.165Z,1019.91
2022-11-29T02:47:08.587Z,1019.91
2022-11-29T02:47:42.780Z,1019.91
2022-11-29T02:48:14.567Z,1019.64
2022-11-29T02:48:46.611Z,1019.64
2022-11-29T02:49:18.540Z,1019.64
2022-11-29T02:49:41.855Z,1019.74
2022-11-29T02:50:04.198Z,1019.74
2022-11-29T02:50:38.519Z,1019.74
2022-11-29T02:51:10.404Z,1019.74
2022-11-29T02:51:42.534Z,1019.74
2022-11-29T02:52:14.378Z,1019.74
2022-11-29T02:52:46.602Z,1019.74
2022-11-29T02:53:15.742Z,1019.64
2022-11-29T02:53:47.293Z,1019.91
2022-11-29T02:54:22.760Z,1019.91
2022-11-29T02:54:46.947Z,1019.91
2022-11-29T02:55:08.796Z,1019.91
2022-11-29T02:55:42.526Z,1019.91
2022-11-29T02:56:14.532Z,1019.81
2022-11-29T02:56:46.669Z,1019.81
2022-11-29T02:57:18.403Z,1019.64
2022-11-29T02:57:41.286Z,1019.74
2022-11-29T02:58:04.108Z,1019.74
2022-11-29T02:58:38.524Z,1019.74
2022-11-29T02:59:10.533Z,1019.74
2022-11-29T02:59:42.486Z,1019.74
2022-11-29T03:00:18.123Z,1019.81
2022-11-29T03:00:47.942Z,1019.81
2022-11-29T03:01:15.875Z,1019.81
2022-11-29T03:01:47.685Z,1019.81
2022-11-29T03:02:22.955Z,1019.81
2022-11-29T03:02:45.623Z,1019.81
2022-11-29T03:03:07.762Z,1019.81
2022-11-29T03:03:42.357Z,1019.81
2022-11-29T03:04:14.624Z,1020.01
2022-11-29T03:04:46.996Z,1020.01
2022-11-29T03:05:18.593Z,1019.74
2022-11-29T03:05:42.276Z,1019.74
2022-11-29T03:06:04.951Z,1019.74
2022-11-29T03:06:38.926Z,1019.74
2022-11-29T03:07:10.400Z,1019.81
2022-11-29T03:07:42.505Z,1019.81
2022-11-29T03:08:14.473Z,1019.81
2022-11-29T03:08:46.519Z,1019.81
2022-11-29T03:09:15.787Z,1020.01
2022-11-29T03:09:47.345Z,1019.74
2022-11-29T03:10:22.534Z,1019.74
2022-11-29T03:10:46.016Z,1019.91
2022-11-29T03:11:08.262Z,1019.91
2022-11-29T03:11:42.550Z,1019.91
2022-11-29T03:12:16.883Z,1020.11
2022-11-29T03:12:46.491Z,1020.11
2022-11-29T03:13:18.658Z,1019.91
2022-11-29T03:13:42.009Z,1020.01
2022-11-29T03:14:03.952Z,1020.01
2022-11-29T03:14:38.492Z,1020.01
2022-11-29T03:15:13.180Z,1020.11
2022-11-29T03:15:42.489Z,1020.11
2022-11-29T03:16:15.011Z,1019.91
2022-11-29T03:16:46.519Z,1019.91
2022-11-29T03:17:18.513Z,1020.01
2022-11-29T03:17:41.167Z,1019.81
2022-11-29T03:18:03.522Z,1019.81
2022-11-29T03:18:38.474Z,1019.81
2022-11-29T03:19:10.649Z,1020.11
2022-11-29T03:19:42.626Z,1020.11
2022-11-29T03:20:14.561Z,1019.91
2022-11-29T03:20:46.456Z,1019.91
2022-11-29T03:21:18.648Z,1020.11
2022-11-29T03:21:41.098Z,1020.11
2022-11-29T03:22:03.756Z,1020.11
2022-11-29T03:22:38.509Z,1020.11
2022-11-29T03:23:10.345Z,1020.11
2022-11-29T03:23:42.551Z,1020.11
2022-11-29T03:24:14.360Z,1020.11
2022-11-29T03:24:46.609Z,1020.11
2022-11-29T03:25:18.499Z,1020.11
2022-11-29T03:25:41.632Z,1020.11
2022-11-29T03:26:03.989Z,1020.11
2022-11-29T03:26:38.754Z,1020.11
2022-11-29T03:27:10.547Z,1019.91
2022-11-29T03:27:42.612Z,1019.91
2022-11-29T03:28:14.439Z,1020.11
2022-11-29T03:28:46.622Z,1020.11
2022-11-29T03:29:18.366Z,1020.11
2022-11-29T03:29:41.089Z,1020.01
2022-11-29T03:30:03.649Z,1020.01
2022-11-29T03:30:38.709Z,1020.01
2022-11-29T03:31:10.952Z,1020.32
2022-11-29T03:31:42.593Z,1020.32
2022-11-29T03:32:14.667Z,1020.32
2022-11-29T03:32:46.407Z,1020.32
2022-11-29T03:33:15.687Z,1020.11
2022-11-29T03:33:47.342Z,1020.11
2022-11-29T03:34:22.453Z,1020.11
2022-11-29T03:34:45.575Z,1020.11
2022-11-29T03:35:07.820Z,1020.11
2022-11-29T03:35:42.416Z,1020.11
2022-11-29T03:36:14.520Z,1020.11
2022-11-29T03:36:46.537Z,1020.11
2022-11-29T03:37:18.631Z,1020.42
2022-11-29T03:37:41.495Z,1020.32
2022-11-29T03:38:03.821Z,1020.32
2022-11-29T03:38:38.413Z,1020.32
2022-11-29T03:39:10.431Z,1020.42
2022-11-29T03:39:42.549Z,1020.42
2022-11-29T03:40:14.755Z,1019.91
2022-11-29T03:40:46.509Z,1019.91
2022-11-29T03:41:18.626Z,1020.32
2022-11-29T03:41:41.389Z,1020.22
2022-11-29T03:42:03.571Z,1020.22
2022-11-29T03:42:38.463Z,1020.22
2022-11-29T03:43:10.498Z,1020.22
2022-11-29T03:43:42.745Z,1020.22
2022-11-29T03:44:14.624Z,1020.42
2022-11-29T03:44:46.479Z,1020.42
2022-11-29T03:45:18.620Z,1020.22
2022-11-29T03:45:41.341Z,1020.42
2022-11-29T03:46:03.734Z,1020.42
2022-11-29T03:46:38.525Z,1020.42
2022-11-29T03:47:10.691Z,1020.32
2022-11-29T03:47:42.551Z,1020.32
2022-11-29T03:48:14.433Z,1020.22
2022-11-29T03:48:46.487Z,1020.22
2022-11-29T03:49:16.224Z,1020.32
2022-11-29T03:49:47.364Z,1020.32
2022-11-29T03:50:22.528Z,1020.32
2022-11-29T03:50:45.224Z,1020.22
2022-11-29T03:51:07.526Z,1020.22
2022-11-29T03:51:42.725Z,1020.22
2022-11-29T03:52:14.746Z,1020.32
2022-11-29T03:52:46.475Z,1020.32
2022-11-29T03:53:15.740Z,1020.32
2022-11-29T03:53:47.361Z,1020.32
2022-11-29T03:54:22.497Z,1020.32
2022-11-29T03:54:45.499Z,1020.32
2022-11-29T03:55:07.874Z,1020.32
2022-11-29T03:55:42.470Z,1020.32
2022-11-29T03:56:14.377Z,1020.22
2022-11-29T03:56:46.615Z,1020.22
2022-11-29T03:57:18.479Z,1020.32
2022-11-29T03:57:41.298Z,1020.42
2022-11-29T03:58:03.825Z,1020.42
2022-11-29T03:58:38.536Z,1020.42
2022-11-29T03:59:10.455Z,1020.52
2022-11-29T03:59:42.399Z,1020.52
2022-11-29T04:00:14.650Z,1020.32
2022-11-29T04:00:46.487Z,1020.32
2022-11-29T04:01:18.565Z,1020.62
2022-11-29T04:01:41.305Z,1020.42
2022-11-29T04:02:03.821Z,1020.42
2022-11-29T04:02:38.626Z,1020.42
2022-11-29T04:03:10.378Z,1020.42
2022-11-29T04:03:42.346Z,1020.42
2022-11-29T04:04:14.473Z,1020.32
2022-11-29T04:04:46.602Z,1020.32
2022-11-29T04:05:15.620Z,1020.22
2022-11-29T04:05:47.498Z,1020.22
2022-11-29T04:06:22.734Z,1020.22
2022-11-29T04:06:46.026Z,1020.52
2022-11-29T04:07:08.343Z,1020.52
2022-11-29T04:07:42.445Z,1020.52
2022-11-29T04:08:14.507Z,1020.42
2022-11-29T04:08:46.485Z,1020.42
2022-11-29T04:09:18.459Z,1020.32
2022-11-29T04:09:41.597Z,1020.52
2022-11-29T04:10:04.429Z,1020.52
2022-11-29T04:10:38.405Z,1020.52
2022-11-29T04:11:10.738Z,1020.52
2022-11-29T04:11:42.403Z,1020.52
2022-11-29T04:12:14.485Z,1020.32
2022-11-29T04:12:46.916Z,1020.32
2022-11-29T04:13:18.661Z,1020.22
2022-11-29T04:13:41.509Z,1020.32
2022-11-29T04:14:03.675Z,1020.32
2022-11-29T04:14:38.691Z,1020.32
2022-11-29T04:15:15.307Z,1020.42
2022-11-29T04:15:42.796Z,1020.42
2022-11-29T04:16:14.779Z,1020.62
2022-11-29T04:16:46.686Z,1020.62
2022-11-29T04:17:18.505Z,1020.52
2022-11-29T04:17:41.125Z,1020.52
2022-11-29T04:18:03.469Z,1020.52
2022-11-29T04:18:38.457Z,1020.52
2022-11-29T04:19:10.718Z,1020.52
2022-11-29T04:19:42.466Z,1020.52
2022-11-29T04:20:14.438Z,1020.32
2022-11-29T04:20:48.311Z,1020.32
2022-11-29T04:21:15.609Z,1020.32
2022-11-29T04:21:47.635Z,1020.32
2022-11-29T04:22:22.744Z,1020.32
2022-11-29T04:22:45.077Z,1020.42
2022-11-29T04:23:07.498Z,1020.42
2022-11-29T04:23:42.696Z,1020.42
2022-11-29T04:24:14.492Z,1020.32
2022-11-29T04:24:46.767Z,1020.32
2022-11-29T04:25:15.650Z,1020.32
2022-11-29T04:25:48.850Z,1020.22
2022-11-29T04:26:22.529Z,1020.22
2022-11-29T04:26:45.208Z,1020.42
2022-11-29T04:27:07.652Z,1020.42
2022-11-29T04:27:42.517Z,1020.42
2022-11-29T04:28:14.339Z,1020.52
2022-11-29T04:28:46.467Z,1020.52
2022-11-29T04:29:15.749Z,1020.52
2022-11-29T04:29:47.325Z,1020.22
2022-11-29T04:30:22.565Z,1020.22
2022-11-29T04:30:46.308Z,1020.52
2022-11-29T04:31:10.195Z,1020.52
2022-11-29T04:31:42.411Z,1020.52
2022-11-29T04:32:14.388Z,1020.42
2022-11-29T04:32:46.504Z,1020.42
2022-11-29T04:33:18.330Z,1020.32
2022-11-29T04:33:47.453Z,1020.42
2022-11-29T04:34:22.464Z,1020.42
2022-11-29T04:34:45.725Z,1020.32
2022-11-29T04:35:07.810Z,1020.32
2022-11-29T04:35:42.444Z,1020.32
2022-11-29T04:36:14.454Z,1020.72
2022-11-29T04:36:46.527Z,1020.72
2022-11-29T04:37:15.773Z,1020.62
2022-11-29T04:37:47.366Z,1020.42
2022-11-29T04:38:22.460Z,1020.42
2022-11-29T04:38:45.276Z,1020.72
2022-11-29T04:39:07.823Z,1020.72
2022-11-29T04:39:42.353Z,1020.72
2022-11-29T04:40:14.472Z,1020.42
2022-11-29T04:40:46.774Z,1020.42
2022-11-29T04:41:18.473Z,1020.62
2022-11-29T04:41:41.835Z,1020.52
2022-11-29T04:42:03.815Z,1020.52
2022-11-29T04:42:38.476Z,1020.52
2022-11-29T04:43:10.338Z,1020.62
2022-11-29T04:43:42.576Z,1020.62
2022-11-29T04:44:14.281Z,1020.42
2022-11-29T04:44:46.968Z,1020.42
2022-11-29T04:45:18.456Z,1020.52
2022-11-29T04:45:41.241Z,1020.62
2022-11-29T04:46:03.677Z,1020.62
2022-11-29T04:46:38.536Z,1020.62
2022-11-29T04:47:10.507Z,1020.72
2022-11-29T04:47:42.385Z,1020.72
2022-11-29T04:48:14.326Z,1020.52
2022-11-29T04:48:46.644Z,1020.52
2022-11-29T04:49:18.469Z,1020.72
2022-11-29T04:49:41.490Z,1020.72
2022-11-29T04:50:03.588Z,1020.72
2022-11-29T04:50:38.338Z,1020.72
2022-11-29T04:51:10.767Z,1020.52
2022-11-29T04:51:42.347Z,1020.52
2022-11-29T04:52:14.532Z,1020.42
2022-11-29T04:52:46.397Z,1020.42
2022-11-29T04:53:15.778Z,1020.72
2022-11-29T04:53:47.425Z,1020.72
2022-11-29T04:54:22.389Z,1020.72
2022-11-29T04:54:45.521Z,1020.72
2022-11-29T04:55:07.475Z,1020.72
2022-11-29T04:55:42.492Z,1020.72
2022-11-29T04:56:14.582Z,1020.52
2022-11-29T04:56:46.411Z,1020.52
2022-11-29T04:57:18.398Z,1020.83
2022-11-29T04:57:41.610Z,1020.72
2022-11-29T04:58:04.032Z,1020.72
2022-11-29T04:58:38.563Z,1020.72
2022-11-29T04:59:10.398Z,1020.83
2022-11-29T04:59:42.546Z,1020.83
2022-11-29T05:00:14.551Z,1020.72
2022-11-29T05:00:46.485Z,1020.72
2022-11-29T05:01:15.827Z,1020.83
2022-11-29T05:01:47.504Z,1021.03
2022-11-29T05:02:22.621Z,1021.03
2022-11-29T05:02:45.546Z,1020.93
2022-11-29T05:03:07.871Z,1020.93
2022-11-29T05:03:42.427Z,1020.93
2022-11-29T05:04:14.500Z,1020.72
2022-11-29T05:04:46.806Z,1020.72
2022-11-29T05:05:15.809Z,1020.83
2022-11-29T05:05:47.294Z,1020.72
2022-11-29T05:06:22.629Z,1020.72
2022-11-29T05:06:45.823Z,1020.62
2022-11-29T05:07:08.247Z,1020.62
2022-11-29T05:07:42.737Z,1020.62
2022-11-29T05:08:14.722Z,1020.72
2022-11-29T05:08:46.329Z,1020.72
2022-11-29T05:09:15.633Z,1020.72
2022-11-29T05:09:47.577Z,1020.72
2022-11-29T05:10:22.501Z,1020.72
2022-11-29T05:10:45.443Z,1021.03
2022-11-29T05:11:07.933Z,1021.03
2022-11-29T05:11:43.850Z,1021.03
2022-11-29T05:12:14.375Z,1020.62
2022-11-29T05:12:46.821Z,1020.62
2022-11-29T05:13:18.720Z,1020.72
2022-11-29T05:13:41.512Z,1021.03
2022-11-29T05:14:06.216Z,1021.03
2022-11-29T05:14:38.609Z,1021.03
2022-11-29T05:15:10.737Z,1020.62
2022-11-29T05:15:42.703Z,1020.62
2022-11-29T05:16:15.069Z,1020.72
2022-11-29T05:16:51.961Z,1020.72
2022-11-29T05:17:15.709Z,1020.83
2022-11-29T05:17:47.434Z,1020.62
2022-11-29T05:18:22.570Z,1020.62
2022-11-29T05:18:45.970Z,1020.93
2022-11-29T05:19:07.837Z,1020.93
2022-11-29T05:19:42.752Z,1020.93
2022-11-29T05:20:14.397Z,1020.83
2022-11-29T05:20:46.461Z,1020.83
2022-11-29T05:21:18.477Z,1020.93
2022-11-29T05:21:41.634Z,1021.03
2022-11-29T05:22:03.877Z,1021.03
2022-11-29T05:22:38.315Z,1021.03
2022-11-29T05:23:10.531Z,1021.03
2022-11-29T05:23:42.372Z,1021.03
2022-11-29T05:24:14.483Z,1020.93
2022-11-29T05:24:46.629Z,1020.93
2022-11-29T05:25:15.756Z,1020.93
2022-11-29T05:25:47.373Z,1020.83
2022-11-29T05:26:22.553Z,1020.83
2022-11-29T05:26:45.766Z,1020.72
2022-11-29T05:27:08.324Z,1020.72
2022-11-29T05:27:42.454Z,1020.72
2022-11-29T05:28:14.569Z,1020.93
2022-11-29T05:28:46.437Z,1020.93
2022-11-29T05:29:18.354Z,1020.93
2022-11-29T05:29:47.445Z,1020.93
2022-11-29T05:30:22.907Z,1020.93
2022-11-29T05:30:45.635Z,1020.83
2022-11-29T05:31:07.994Z,1020.83
2022-11-29T05:31:42.551Z,1020.83
2022-11-29T05:32:14.809Z,1021.03
2022-11-29T05:32:46.510Z,1021.03
2022-11-29T05:33:15.642Z,1020.83
2022-11-29T05:33:47.399Z,1021.13
2022-11-29T05:34:22.514Z,1021.13
2022-11-29T05:34:45.569Z,1021.03
2022-11-29T05:35:07.919Z,1021.03
2022-11-29T05:35:42.680Z,1021.03
2022-11-29T05:36:14.571Z,1021.03
2022-11-29T05:36:46.386Z,1021.03
2022-11-29T05:37:15.792Z,1021.03
2022-11-29T05:37:47.260Z,1021.13
2022-11-29T05:38:22.303Z,1021.13
2022-11-29T05:38:45.077Z,1020.93
2022-11-29T05:39:07.407Z,1020.93
2022-11-29T05:39:42.367Z,1020.93
2022-11-29T05:40:14.673Z,1021.03
2022-11-29T05:40:46.445Z,1021.03
2022-11-29T05:41:18.371Z,1021.13
2022-11-29T05:41:41.407Z,1021.03
2022-11-29T05:42:03.447Z,1021.03
2022-11-29T05:42:38.289Z,1021.03
2022-11-29T05:43:10.480Z,1021.03
2022-11-29T05:43:42.343Z,1021.03
2022-11-29T05:44:14.370Z,1020.93
2022-11-29T05:44:47.157Z,1020.93
2022-11-29T05:45:18.426Z,1021.03
2022-11-29T05:45:50.747Z,1021.13
2022-11-29T05:46:22.331Z,1021.13
2022-11-29T05:46:45.190Z,1021.23
2022-11-29T05:47:07.503Z,1021.23
2022-11-29T05:47:42.443Z,1021.23
2022-11-29T05:48:14.322Z,1021.23
2022-11-29T05:48:46.481Z,1021.23
2022-11-29T05:49:15.882Z,1021.03
2022-11-29T05:49:47.272Z,1021.13
2022-11-29T05:50:22.444Z,1021.13
2022-11-29T05:50:45.361Z,1021.13
2022-11-29T05:51:07.742Z,1021.13
2022-11-29T05:51:42.784Z,1021.13
2022-11-29T05:52:14.435Z,1021.13
2022-11-29T05:52:46.390Z,1021.13
2022-11-29T05:53:15.658Z,1021.23
2022-11-29T05:53:47.361Z,1021.13
2022-11-29T05:54:22.469Z,1021.13
2022-11-29T05:54:45.397Z,1021.33
2022-11-29T05:55:07.413Z,1021.33
2022-11-29T05:55:42.486Z,1021.33
2022-11-29T05:56:31.820Z,1021.33
2022-11-29T05:56:54.280Z,1021.13
2022-11-29T05:57:16.601Z,1021.13
2022-11-29T05:57:47.560Z,1021.13
2022-11-29T05:58:27.066Z,1021.13
2022-11-29T05:58:45.317Z,1021.13
2022-11-29T05:59:07.748Z,1021.13
2022-11-29T05:59:42.423Z,1021.13
2022-11-29T06:00:14.508Z,1021.23
2022-11-29T06:00:46.239Z,1021.23
2022-11-29T06:01:15.810Z,1021.23
2022-11-29T06:01:47.425Z,1021.33
2022-11-29T06:02:22.555Z,1021.33
2022-11-29T06:02:45.339Z,1021.23